Time;durP1;ratioP1;P1;durP2;ratioP2;P2;SDS_P1;SDS_P2;PMS_P1;PMS_P2;Temp;Humidity;BMP_temperature;BMP_pressure;BME280_temperature;BME280_humidity;BME280_pressure;Samples;Min_cycle;Max_cycle;Signal;HPM_P1;HPM_P2
2023/05/24 00:02:09;;;;;;;12.20;2.80;;;8.10;99.90;;;;;;5071795;28;20024;-64
2023/05/24 00:04:35;;;;;;;7.28;2.47;;;8.00;99.90;;;;;;5064631;28;20024;-64
2023/05/24 00:07:03;;;;;;;8.25;2.00;;;8.00;99.90;;;;;;5073089;28;20032;-66
2023/05/24 00:09:29;;;;;;;6.15;2.33;;;8.00;99.90;;;;;;5073087;28;20052;-65
2023/05/24 00:11:55;;;;;;;9.45;2.35;;;8.00;99.90;;;;;;5073104;28;20040;-65
2023/05/24 00:14:21;;;;;;;5.72;1.90;;;8.00;99.90;;;;;;5053087;28;20033;-65
2023/05/24 00:16:46;;;;;;;7.50;2.50;;;7.90;99.90;;;;;;5072201;28;20111;-66
2023/05/24 00:19:17;;;;;;;6.97;2.20;;;7.80;99.90;;;;;;5069850;28;20541;-65
2023/05/24 00:21:46;;;;;;;7.70;3.30;;;7.80;99.90;;;;;;5066768;28;20024;-65
2023/05/24 00:24:12;;;;;;;9.38;2.58;;;7.70;99.90;;;;;;5073240;28;20107;-65
2023/05/24 00:26:38;;;;;;;8.15;2.40;;;7.70;99.90;;;;;;5054060;28;20111;-65
2023/05/24 00:29:03;;;;;;;8.00;2.40;;;7.70;99.90;;;;;;5053398;28;20111;-66
2023/05/24 00:31:29;;;;;;;9.77;2.17;;;7.70;99.90;;;;;;5063975;28;20544;-65
2023/05/24 00:33:55;;;;;;;10.85;2.50;;;7.70;99.90;;;;;;5073464;28;20055;-66
2023/05/24 00:36:20;;;;;;;8.65;2.85;;;7.60;99.90;;;;;;5054227;28;20082;-64
2023/05/24 00:38:46;;;;;;;10.95;2.30;;;7.60;99.90;;;;;;5071975;28;20111;-66
2023/05/24 00:41:12;;;;;;;11.55;2.80;;;7.50;99.90;;;;;;5072778;28;20025;-65
2023/05/24 00:43:37;;;;;;;14.23;3.95;;;7.50;99.90;;;;;;5054113;28;20028;-67
2023/05/24 00:46:14;;;;;;;6.68;2.45;;;7.40;99.90;;;;;;5073215;28;20016;-64
2023/05/24 00:48:41;;;;;;;11.05;2.65;;;7.40;99.90;;;;;;5072032;28;20025;-65
2023/05/24 00:51:06;;;;;;;6.68;2.10;;;7.30;99.90;;;;;;5072089;28;20556;-65
2023/05/24 00:53:34;;;;;;;9.13;2.58;;;7.30;99.90;;;;;;5055644;28;20115;-65
2023/05/24 00:56:00;;;;;;;9.05;2.40;;;7.30;99.90;;;;;;5072611;28;20096;-67
2023/05/24 00:58:29;;;;;;;10.32;2.63;;;7.40;99.90;;;;;;5060789;28;20048;-65
2023/05/24 01:00:58;;;;;;;13.35;2.33;;;7.30;99.90;;;;;;5070388;28;20036;-65
2023/05/24 01:03:28;;;;;;;10.38;2.47;;;7.30;99.90;;;;;;5067056;28;20036;-66
2023/05/24 01:05:57;;;;;;;7.43;2.67;;;7.30;99.90;;;;;;5060729;28;20477;-65
2023/05/24 01:08:38;;;;;;;9.10;2.63;;;7.20;99.90;;;;;;5068276;28;20020;-67
2023/05/24 01:11:26;;;;;;;10.02;2.78;;;7.20;99.90;;;;;;5070937;28;20492;-64
2023/05/24 01:14:13;;;;;;;10.13;2.90;;;7.20;99.90;;;;;;5052271;28;20035;-65
2023/05/24 01:16:55;;;;;;;6.72;2.75;;;7.20;99.90;;;;;;5072773;28;20059;-65
2023/05/24 01:19:42;;;;;;;6.65;2.17;;;7.10;99.90;;;;;;5071816;28;20542;-65
2023/05/24 01:22:44;;;;;;;7.57;2.45;;;7.00;99.90;;;;;;5065727;28;20157;-71
2023/05/24 01:25:51;;;;;;;9.27;2.40;;;7.00;99.90;;;;;;5044683;28;20113;-71
2023/05/24 01:28:17;;;;;;;12.10;2.38;;;7.00;99.90;;;;;;5066998;28;20030;-68
2023/05/24 01:30:43;;;;;;;6.65;2.53;;;7.00;99.90;;;;;;5072747;28;20045;-66
2023/05/24 01:33:09;;;;;;;9.90;2.70;;;6.90;99.90;;;;;;5058899;28;20025;-65
2023/05/24 01:35:39;;;;;;;8.30;2.35;;;6.90;99.90;;;;;;5061842;28;20032;-65
2023/05/24 01:38:05;;;;;;;7.45;2.47;;;6.80;99.90;;;;;;5063907;28;20013;-65
2023/05/24 01:40:32;;;;;;;6.00;2.30;;;6.70;99.90;;;;;;5071137;28;20119;-66
2023/05/24 01:43:07;;;;;;;8.40;2.60;;;6.70;99.90;;;;;;5057290;28;20037;-65
2023/05/24 01:45:44;;;;;;;7.50;2.30;;;6.70;99.90;;;;;;5072248;28;20016;-68
2023/05/24 01:48:19;;;;;;;10.68;2.38;;;6.70;99.90;;;;;;5063360;28;20030;-66
2023/05/24 01:50:59;;;;;;;7.80;3.45;;;6.60;99.90;;;;;;5041398;28;20036;-68
2023/05/24 01:53:31;;;;;;;7.75;2.63;;;6.60;99.90;;;;;;5052363;28;20978;-67
2023/05/24 01:56:00;;;;;;;9.95;2.80;;;6.60;99.90;;;;;;5071995;28;20032;-67
2023/05/24 01:58:28;;;;;;;12.55;3.13;;;6.60;99.90;;;;;;5061697;28;20053;-65
2023/05/24 02:00:55;;;;;;;6.28;2.90;;;6.50;99.90;;;;;;5052558;28;20430;-64
2023/05/24 02:03:21;;;;;;;6.82;2.30;;;6.50;99.90;;;;;;5057413;28;20033;-69
2023/05/24 02:05:46;;;;;;;10.43;2.80;;;6.50;99.90;;;;;;5059154;28;20113;-66
2023/05/24 02:08:12;;;;;;;9.55;2.78;;;6.50;99.90;;;;;;5066695;28;20538;-65
2023/05/24 02:10:41;;;;;;;10.02;2.92;;;6.40;99.90;;;;;;5072005;28;20024;-64
2023/05/24 02:13:07;;;;;;;9.43;2.50;;;6.30;99.90;;;;;;5071672;28;20400;-64
2023/05/24 02:15:34;;;;;;;7.22;2.55;;;6.30;99.90;;;;;;5071269;28;20025;-67
2023/05/24 02:18:00;;;;;;;10.18;2.83;;;6.30;99.90;;;;;;5062122;28;20052;-66
2023/05/24 02:20:29;;;;;;;7.43;2.53;;;6.30;99.90;;;;;;5061983;28;20024;-67
2023/05/24 02:22:58;;;;;;;6.68;2.90;;;6.30;99.90;;;;;;5063831;28;20053;-69
2023/05/24 02:25:24;;;;;;;12.07;2.80;;;6.30;99.90;;;;;;5070884;28;20020;-70
2023/05/24 02:27:50;;;;;;;13.88;3.05;;;6.20;99.90;;;;;;5067958;28;20169;-71
2023/05/24 02:30:16;;;;;;;14.15;3.22;;;6.20;99.90;;;;;;5060351;28;20051;-71
2023/05/24 02:32:42;;;;;;;10.02;2.95;;;6.30;99.90;;;;;;5067964;28;20060;-67
2023/05/24 02:35:07;;;;;;;10.05;2.83;;;6.30;99.90;;;;;;5067507;28;20029;-68
2023/05/24 02:37:33;;;;;;;10.23;3.60;;;6.30;99.90;;;;;;5071767;28;20407;-69
2023/05/24 02:39:59;;;;;;;9.52;3.03;;;6.30;99.90;;;;;;5070808;28;20029;-68
2023/05/24 02:42:24;;;;;;;9.40;3.20;;;6.30;99.90;;;;;;5053168;28;20036;-68
2023/05/24 02:44:51;;;;;;;9.70;3.15;;;6.30;99.90;;;;;;5066164;28;20029;-68
2023/05/24 02:47:17;;;;;;;8.35;2.72;;;6.30;99.90;;;;;;5076041;28;20024;-70
2023/05/24 02:49:43;;;;;;;7.70;2.95;;;6.30;99.90;;;;;;5072362;28;20115;-69
2023/05/24 02:52:08;;;;;;;7.43;2.65;;;6.30;99.90;;;;;;5075259;28;20437;-72
2023/05/24 02:54:35;;;;;;;9.80;3.10;;;6.30;99.90;;;;;;5074529;28;20016;-69
2023/05/24 02:57:01;;;;;;;6.97;2.47;;;6.30;99.90;;;;;;5047497;28;20074;-69
2023/05/24 02:59:27;;;;;;;12.15;3.20;;;6.20;99.90;;;;;;5065642;28;20123;-69
2023/05/24 03:01:52;;;;;;;6.28;2.50;;;6.20;99.90;;;;;;5070474;28;20044;-69
2023/05/24 03:04:18;;;;;;;12.20;2.88;;;6.20;99.90;;;;;;5069134;28;20017;-70
2023/05/24 03:06:44;;;;;;;6.93;2.85;;;6.20;99.90;;;;;;5053100;28;20469;-69
2023/05/24 03:09:10;;;;;;;10.05;3.25;;;6.10;99.90;;;;;;5074730;28;20055;-68
2023/05/24 03:11:35;;;;;;;6.82;2.97;;;6.10;99.90;;;;;;5073674;28;20024;-72
2023/05/24 03:14:01;;;;;;;12.25;3.20;;;6.10;99.90;;;;;;5075209;28;20422;-68
2023/05/24 03:16:27;;;;;;;12.65;3.20;;;6.20;99.90;;;;;;5068285;28;20433;-69
2023/05/24 03:18:54;;;;;;;12.98;3.00;;;6.20;99.90;;;;;;5054435;28;20031;-68
2023/05/24 03:21:20;;;;;;;12.82;4.28;;;6.20;99.90;;;;;;5066148;28;20043;-71
2023/05/24 03:23:45;;;;;;;10.73;3.03;;;6.20;99.90;;;;;;5072382;28;20448;-65
2023/05/24 03:26:14;;;;;;;11.70;3.72;;;6.20;99.90;;;;;;5064850;28;20029;-71
2023/05/24 03:28:40;;;;;;;15.20;3.80;;;6.20;99.90;;;;;;5074495;28;20035;-72
2023/05/24 03:31:06;;;;;;;7.97;3.10;;;6.20;99.90;;;;;;5073659;28;20028;-70
2023/05/24 03:33:32;;;;;;;10.77;3.42;;;6.20;99.90;;;;;;5074300;28;20044;-65
2023/05/24 03:35:57;;;;;;;11.32;3.22;;;6.10;99.90;;;;;;5067415;28;20092;-64
2023/05/24 03:38:23;;;;;;;9.52;2.90;;;6.10;99.90;;;;;;5072440;28;20103;-66
2023/05/24 03:40:49;;;;;;;12.32;2.97;;;6.10;99.90;;;;;;5063750;28;20037;-65
2023/05/24 03:43:15;;;;;;;9.15;2.75;;;6.10;99.90;;;;;;5075310;28;20043;-65
2023/05/24 03:45:41;;;;;;;12.70;3.80;;;6.20;99.90;;;;;;5054733;28;20017;-64
2023/05/24 03:48:07;;;;;;;10.63;3.17;;;6.20;99.90;;;;;;5072813;28;20503;-72
2023/05/24 03:50:32;;;;;;;13.45;3.53;;;6.20;99.90;;;;;;5070512;28;20108;-67
2023/05/24 03:52:58;;;;;;;12.65;3.08;;;6.20;99.90;;;;;;5060517;28;20163;-70
2023/05/24 03:55:24;;;;;;;8.40;3.03;;;6.20;99.90;;;;;;5056316;28;20025;-69
2023/05/24 03:57:49;;;;;;;14.23;3.90;;;6.20;99.90;;;;;;5060878;28;20025;-66
2023/05/24 04:00:15;;;;;;;9.38;3.88;;;6.20;99.90;;;;;;5072640;28;21344;-69
2023/05/24 04:02:40;;;;;;;13.10;3.67;;;6.30;99.90;;;;;;5061432;28;20119;-67
2023/05/24 04:05:09;;;;;;;11.60;3.20;;;6.30;99.90;;;;;;5071880;28;20028;-66
2023/05/24 04:07:38;;;;;;;15.50;4.50;;;6.30;99.90;;;;;;5072122;28;20449;-72
2023/05/24 04:10:06;;;;;;;12.80;3.85;;;6.30;99.90;;;;;;5073273;28;20029;-66
2023/05/24 04:12:31;;;;;;;11.82;3.65;;;6.40;99.90;;;;;;5069895;28;20111;-67
2023/05/24 04:14:58;;;;;;;8.90;3.22;;;6.40;99.90;;;;;;5060557;28;20118;-64
2023/05/24 04:17:24;;;;;;;11.90;3.42;;;6.50;99.90;;;;;;5058434;28;20130;-64
2023/05/24 04:19:50;;;;;;;8.80;2.85;;;6.60;99.90;;;;;;5057355;28;20473;-67
2023/05/24 04:22:17;;;;;;;14.45;3.20;;;6.70;99.90;;;;;;5064573;28;20078;-65
2023/05/24 04:24:46;;;;;;;8.32;3.03;;;6.80;99.90;;;;;;5068263;28;20016;-67
2023/05/24 04:27:12;;;;;;;13.73;3.05;;;6.90;99.90;;;;;;5059336;28;20060;-65
2023/05/24 04:29:41;;;;;;;9.60;3.60;;;7.00;99.90;;;;;;5060667;28;20063;-67
2023/05/24 04:32:08;;;;;;;6.55;2.63;;;7.10;99.90;;;;;;5063493;28;20059;-65
2023/05/24 04:34:34;;;;;;;9.40;4.03;;;7.20;99.90;;;;;;5057025;28;20020;-64
2023/05/24 04:37:00;;;;;;;8.80;3.05;;;7.30;99.90;;;;;;5062711;28;20151;-66
2023/05/24 04:39:28;;;;;;;11.20;3.22;;;7.40;99.90;;;;;;5069783;28;20044;-66
2023/05/24 04:41:56;;;;;;;10.85;3.47;;;7.40;99.90;;;;;;5067567;28;20041;-65
2023/05/24 04:44:23;;;;;;;13.95;2.83;;;7.50;99.90;;;;;;5071067;28;20440;-66
2023/05/24 04:46:49;;;;;;;13.35;3.80;;;7.60;99.90;;;;;;5068186;28;20025;-65
2023/05/24 04:49:14;;;;;;;9.82;3.03;;;7.80;99.90;;;;;;5048415;28;20033;-65
2023/05/24 04:51:40;;;;;;;17.23;3.80;;;7.90;99.90;;;;;;5071636;28;20047;-66
2023/05/24 04:54:09;;;;;;;12.93;3.28;;;7.90;99.90;;;;;;5071691;28;20388;-64
2023/05/24 04:56:35;;;;;;;10.07;3.65;;;8.00;99.90;;;;;;5069753;28;20016;-64
2023/05/24 04:59:01;;;;;;;10.70;4.13;;;8.00;99.90;;;;;;5069366;28;20094;-65
2023/05/24 05:01:26;;;;;;;9.80;3.60;;;8.10;99.90;;;;;;5064827;28;20049;-65
2023/05/24 05:03:52;;;;;;;15.10;5.05;;;8.10;99.90;;;;;;5052810;28;20028;-66
2023/05/24 05:06:17;;;;;;;10.52;3.22;;;8.20;99.90;;;;;;5051545;28;20123;-63
2023/05/24 05:08:43;;;;;;;16.60;4.40;;;8.20;99.90;;;;;;5053508;28;20025;-63
2023/05/24 05:11:09;;;;;;;15.82;5.13;;;8.20;99.90;;;;;;5067955;28;20020;-64
2023/05/24 05:13:34;;;;;;;14.43;4.65;;;8.30;99.90;;;;;;5071487;28;20104;-64
2023/05/24 05:16:01;;;;;;;11.20;3.47;;;8.40;99.90;;;;;;5072269;28;20036;-64
2023/05/24 05:18:27;;;;;;;11.23;3.40;;;8.50;99.90;;;;;;5069278;28;20016;-67
2023/05/24 05:20:52;;;;;;;10.95;3.75;;;8.70;99.90;;;;;;5054157;28;20028;-69
2023/05/24 05:23:18;;;;;;;14.27;3.95;;;8.80;99.90;;;;;;5065216;28;20091;-70
2023/05/24 05:25:43;;;;;;;14.43;4.20;;;8.90;99.90;;;;;;5069549;28;20020;-72
2023/05/24 05:28:09;;;;;;;14.38;4.20;;;9.00;99.90;;;;;;5058823;28;20075;-65
2023/05/24 05:30:35;;;;;;;16.48;3.70;;;9.10;99.90;;;;;;5063930;28;20047;-67
2023/05/24 05:33:00;;;;;;;16.90;4.75;;;9.30;99.90;;;;;;5058265;28;20028;-67
2023/05/24 05:35:26;;;;;;;18.42;4.40;;;9.40;99.90;;;;;;5042639;28;20033;-64
2023/05/24 05:37:51;;;;;;;15.02;3.75;;;9.50;99.90;;;;;;5059396;28;20056;-65
2023/05/24 05:40:17;;;;;;;14.05;4.25;;;9.70;99.90;;;;;;5058839;28;20021;-69
2023/05/24 05:42:43;;;;;;;10.70;3.92;;;9.80;99.90;;;;;;5053162;28;20041;-67
2023/05/24 05:45:09;;;;;;;16.73;4.13;;;9.90;99.90;;;;;;5062895;28;20481;-64
2023/05/24 05:47:35;;;;;;;14.68;4.70;;;9.90;99.90;;;;;;5072075;28;20428;-65
2023/05/24 05:50:00;;;;;;;10.18;3.83;;;10.00;99.90;;;;;;5054271;28;20017;-67
2023/05/24 05:52:26;;;;;;;11.20;4.18;;;10.10;99.90;;;;;;5069583;28;20032;-66
2023/05/24 05:54:51;;;;;;;19.60;4.85;;;10.10;99.90;;;;;;5067489;28;20021;-67
2023/05/24 05:57:22;;;;;;;11.02;3.65;;;10.20;99.90;;;;;;5071732;28;20437;-65
2023/05/24 05:59:48;;;;;;;14.77;4.22;;;10.20;99.90;;;;;;5060067;28;20089;-65
2023/05/24 06:02:14;;;;;;;13.77;4.15;;;10.30;99.90;;;;;;5064130;28;20115;-67
2023/05/24 06:04:39;;;;;;;14.52;4.72;;;10.30;99.90;;;;;;5069650;28;20067;-67
2023/05/24 06:07:05;;;;;;;15.73;4.10;;;10.40;99.90;;;;;;5069032;28;20041;-69
2023/05/24 06:09:31;;;;;;;15.60;4.20;;;10.60;99.90;;;;;;5071408;28;20369;-67
2023/05/24 06:11:56;;;;;;;11.45;4.07;;;10.80;99.90;;;;;;5070984;28;20032;-66
2023/05/24 06:14:23;;;;;;;15.43;4.18;;;11.00;99.90;;;;;;5072911;28;20033;-67
2023/05/24 06:16:51;;;;;;;15.70;3.38;;;11.20;99.90;;;;;;5064597;28;20028;-64
2023/05/24 06:19:17;;;;;;;12.88;3.80;;;11.30;99.90;;;;;;5056936;28;20052;-64
2023/05/24 06:21:46;;;;;;;16.52;4.28;;;11.50;99.90;;;;;;5072753;28;20043;-65
2023/05/24 06:24:13;;;;;;;10.73;3.47;;;11.70;99.90;;;;;;5069379;28;20033;-65
2023/05/24 06:26:40;;;;;;;12.60;4.13;;;11.80;99.90;;;;;;5072317;28;20021;-65
2023/05/24 06:29:06;;;;;;;11.77;3.60;;;11.90;99.90;;;;;;5064266;28;20448;-65
2023/05/24 06:31:31;;;;;;;12.90;2.92;;;12.00;99.90;;;;;;5069169;28;20035;-64
2023/05/24 06:33:57;;;;;;;7.55;2.75;;;12.10;99.90;;;;;;5074466;28;20038;-66
2023/05/24 06:36:23;;;;;;;13.38;4.72;;;12.20;99.90;;;;;;5070675;28;20024;-66
2023/05/24 06:38:48;;;;;;;14.32;4.45;;;12.20;99.90;;;;;;5055817;28;20020;-64
2023/05/24 06:41:14;;;;;;;12.15;3.28;;;12.20;99.90;;;;;;5061254;28;20112;-66
2023/05/24 06:43:39;;;;;;;10.27;3.53;;;12.10;99.90;;;;;;5071125;28;20037;-65
2023/05/24 06:46:05;;;;;;;12.80;3.80;;;12.20;99.90;;;;;;5065035;28;20060;-65
2023/05/24 06:48:31;;;;;;;11.73;3.35;;;12.30;99.90;;;;;;5058777;28;20056;-66
2023/05/24 06:50:57;;;;;;;9.88;3.03;;;12.40;99.90;;;;;;5064311;28;20469;-64
2023/05/24 06:53:22;;;;;;;11.25;3.15;;;12.40;99.90;;;;;;5075824;28;20051;-67
2023/05/24 06:55:48;;;;;;;9.93;2.95;;;12.40;99.90;;;;;;5066170;28;20042;-66
2023/05/24 06:58:14;;;;;;;12.25;3.60;;;12.60;99.90;;;;;;5044768;28;20040;-62
2023/05/24 07:00:41;;;;;;;15.02;3.85;;;12.70;99.90;;;;;;5071407;28;20021;-63
2023/05/24 07:03:08;;;;;;;12.70;4.28;;;12.80;99.90;;;;;;5066850;28;20032;-63
2023/05/24 07:05:34;;;;;;;13.93;3.95;;;12.90;99.90;;;;;;5072462;28;20021;-66
2023/05/24 07:07:59;;;;;;;13.25;3.67;;;12.90;99.90;;;;;;5065089;28;20031;-63
2023/05/24 07:10:25;;;;;;;10.70;3.10;;;12.80;99.90;;;;;;5061489;28;20033;-63
2023/05/24 07:12:51;;;;;;;11.32;3.03;;;12.70;99.90;;;;;;5075263;28;20024;-62
2023/05/24 07:15:16;;;;;;;11.30;3.00;;;12.70;99.90;;;;;;5074561;28;20031;-63
2023/05/24 07:17:42;;;;;;;17.27;3.25;;;12.70;99.90;;;;;;5074755;28;20141;-63
2023/05/24 07:20:09;;;;;;;13.45;3.60;;;12.60;99.90;;;;;;5075646;28;20016;-63
2023/05/24 07:22:35;;;;;;;8.80;2.80;;;12.70;99.90;;;;;;5055427;28;20040;-63
2023/05/24 07:25:01;;;;;;;11.13;3.40;;;12.80;99.90;;;;;;5059206;28;20017;-61
2023/05/24 07:27:27;;;;;;;8.20;3.03;;;12.90;99.90;;;;;;5062050;28;20025;-61
2023/05/24 07:29:53;;;;;;;12.60;2.95;;;13.10;99.90;;;;;;5053668;28;20078;-61
2023/05/24 07:32:18;;;;;;;14.50;3.70;;;13.20;99.90;;;;;;5054296;28;20488;-62
2023/05/24 07:34:44;;;;;;;10.60;3.47;;;13.30;99.90;;;;;;5054785;28;20044;-69
2023/05/24 07:37:10;;;;;;;16.45;3.35;;;13.40;99.90;;;;;;5037000;28;20025;-69
2023/05/24 07:39:36;;;;;;;10.38;3.13;;;13.40;99.90;;;;;;5054249;28;20029;-65
2023/05/24 07:42:02;;;;;;;10.30;2.97;;;13.50;99.90;;;;;;5066429;28;20062;-65
2023/05/24 07:44:28;;;;;;;13.52;3.00;;;13.50;99.90;;;;;;5074143;28;20009;-64
2023/05/24 07:46:54;;;;;;;7.38;2.97;;;13.40;99.90;;;;;;5074571;28;20039;-63
2023/05/24 07:49:20;;;;;;;11.05;3.08;;;13.20;99.90;;;;;;5074592;28;20028;-62
2023/05/24 07:51:47;;;;;;;9.65;2.72;;;13.10;99.90;;;;;;5064964;28;20031;-64
2023/05/24 07:54:13;;;;;;;9.70;2.65;;;13.10;99.90;;;;;;5036859;28;20158;-63
2023/05/24 07:56:39;;;;;;;16.50;3.53;;;13.10;99.90;;;;;;5054666;28;20482;-66
2023/05/24 07:59:05;;;;;;;10.27;3.08;;;13.20;99.90;;;;;;5053716;28;20045;-63
2023/05/24 08:01:33;;;;;;;13.65;2.92;;;13.30;99.90;;;;;;5043560;28;20035;-62
2023/05/24 08:03:59;;;;;;;11.10;2.67;;;13.40;99.90;;;;;;5074334;28;20027;-62
2023/05/24 08:06:24;;;;;;;11.63;2.88;;;13.50;99.90;;;;;;5073733;28;20029;-63
2023/05/24 08:08:50;;;;;;;12.27;2.80;;;13.70;99.90;;;;;;5074270;28;20048;-63
2023/05/24 08:11:16;;;;;;;8.88;3.53;;;13.70;99.90;;;;;;5069718;28;20477;-63
2023/05/24 08:13:43;;;;;;;14.18;3.72;;;13.70;99.90;;;;;;5053571;28;20021;-62
2023/05/24 08:16:09;;;;;;;7.38;3.15;;;13.80;99.90;;;;;;5054418;28;20056;-62
2023/05/24 08:18:35;;;;;;;7.35;2.58;;;13.80;99.90;;;;;;5054633;28;20048;-63
2023/05/24 08:21:01;;;;;;;10.55;2.80;;;13.80;99.90;;;;;;5055166;28;20496;-63
2023/05/24 08:23:28;;;;;;;9.70;2.90;;;13.80;99.90;;;;;;5056175;28;20032;-63
2023/05/24 08:25:55;;;;;;;8.77;2.50;;;13.90;99.90;;;;;;5073847;28;20013;-66
2023/05/24 08:28:21;;;;;;;11.18;2.53;;;14.00;99.90;;;;;;5073343;28;20029;-62
2023/05/24 08:30:47;;;;;;;7.28;2.67;;;14.00;99.90;;;;;;5073707;28;20027;-65
2023/05/24 08:33:12;;;;;;;11.00;2.53;;;14.10;99.90;;;;;;5054108;28;20025;-62
2023/05/24 08:35:38;;;;;;;9.10;2.50;;;14.20;99.90;;;;;;5053427;28;20073;-63
2023/05/24 08:38:04;;;;;;;8.88;2.78;;;14.30;99.90;;;;;;5071755;28;20407;-63
2023/05/24 08:40:30;;;;;;;14.93;2.95;;;14.40;99.90;;;;;;5073065;28;20025;-64
2023/05/24 08:42:59;;;;;;;11.85;2.30;;;14.50;99.90;;;;;;5072816;28;20043;-64
2023/05/24 08:45:27;;;;;;;13.38;2.53;;;14.50;99.90;;;;;;5073693;28;20081;-62
2023/05/24 08:47:55;;;;;;;8.95;3.05;;;14.60;99.90;;;;;;5073070;28;20024;-63
2023/05/24 08:50:21;;;;;;;7.25;2.95;;;14.60;99.90;;;;;;5055767;28;20031;-64
2023/05/24 08:52:48;;;;;;;9.55;2.15;;;14.60;99.90;;;;;;5057846;28;20444;-63
2023/05/24 08:55:14;;;;;;;14.75;3.30;;;14.60;99.90;;;;;;5057433;28;20059;-64
2023/05/24 08:57:41;;;;;;;8.38;2.40;;;14.80;99.90;;;;;;5054377;28;20446;-62
2023/05/24 09:00:10;;;;;;;9.73;2.50;;;14.90;99.90;;;;;;5053015;28;20049;-63
2023/05/24 09:02:40;;;;;;;11.00;2.78;;;15.10;99.90;;;;;;5052879;28;20044;-66
2023/05/24 09:05:10;;;;;;;7.90;2.72;;;15.30;99.90;;;;;;5053329;28;20025;-64
2023/05/24 09:07:36;;;;;;;9.40;2.80;;;15.50;99.90;;;;;;5053352;28;20025;-64
2023/05/24 09:10:07;;;;;;;8.40;2.30;;;15.50;99.00;;;;;;5034615;28;20043;-68
2023/05/24 09:12:35;;;;;;;6.82;2.63;;;15.60;98.40;;;;;;5063818;28;20039;-63
2023/05/24 09:15:01;;;;;;;9.40;2.65;;;15.60;97.40;;;;;;5073320;28;20404;-67
2023/05/24 09:17:27;;;;;;;10.75;2.40;;;15.60;97.50;;;;;;5044940;28;20025;-64
2023/05/24 09:19:53;;;;;;;12.38;2.95;;;15.70;97.70;;;;;;5053435;28;20525;-67
2023/05/24 09:22:24;;;;;;;8.63;2.70;;;15.80;97.50;;;;;;5061237;28;20123;-69
2023/05/24 09:24:50;;;;;;;;;;;15.70;96.50;;;;;;5073099;28;20051;-70
2023/05/24 09:27:17;;;;;;;9.07;2.63;;;15.70;95.70;;;;;;5072996;28;20261;-69
2023/05/24 09:29:47;;;;;;;8.20;2.25;;;15.70;95.50;;;;;;5072901;28;20016;-70
2023/05/24 09:32:17;;;;;;;9.55;2.90;;;15.70;95.40;;;;;;5064387;28;20382;-70
2023/05/24 09:34:46;;;;;;;9.00;2.22;;;15.80;95.90;;;;;;5052877;28;20496;-69
2023/05/24 09:37:16;;;;;;;7.65;2.38;;;15.90;95.30;;;;;;5052522;28;20029;-68
2023/05/24 09:39:43;;;;;;;7.82;2.50;;;16.10;95.40;;;;;;5053090;28;20104;-70
2023/05/24 09:42:16;;;;;;;7.85;2.30;;;16.30;94.70;;;;;;5059106;28;20044;-66
2023/05/24 09:44:42;;;;;;;10.00;2.30;;;16.30;93.70;;;;;;5054562;28;20017;-62
2023/05/24 09:47:08;;;;;;;8.30;2.72;;;16.30;93.40;;;;;;5053100;28;20494;-64
2023/05/24 09:49:36;;;;;;;10.30;3.00;;;16.30;93.60;;;;;;5072760;28;20028;-62
2023/05/24 09:52:02;;;;;;;9.75;2.75;;;16.40;92.90;;;;;;5059246;28;20031;-65
2023/05/24 09:54:27;;;;;;;9.05;2.65;;;16.50;93.40;;;;;;5056492;28;20099;-66
2023/05/24 09:56:53;;;;;;;9.40;3.00;;;16.60;92.80;;;;;;5067432;28;20024;-66
2023/05/24 09:59:19;;;;;;;8.48;2.63;;;16.50;92.50;;;;;;5076220;28;20450;-67
2023/05/24 10:01:45;;;;;;;6.35;2.97;;;16.50;92.60;;;;;;5077019;28;20400;-62
2023/05/24 10:04:11;;;;;;;8.40;2.65;;;16.60;93.10;;;;;;5076759;28;20087;-62
2023/05/24 10:06:41;;;;;;;9.90;2.78;;;16.80;92.70;;;;;;5067571;28;20025;-64
2023/05/24 10:09:08;;;;;;;5.63;2.50;;;16.70;91.40;;;;;;5056825;28;20020;-64
2023/05/24 10:11:37;;;;;;;5.18;2.05;;;16.70;91.60;;;;;;5056757;28;20055;-62
2023/05/24 10:14:05;;;;;;;8.10;2.45;;;16.70;91.70;;;;;;5038439;28;20107;-63
2023/05/24 10:16:31;;;;;;;10.15;2.92;;;16.60;92.00;;;;;;5063606;28;20021;-63
2023/05/24 10:18:57;;;;;;;9.85;3.35;;;16.60;92.50;;;;;;5076639;28;20027;-63
2023/05/24 10:21:24;;;;;;;11.63;3.00;;;16.70;92.20;;;;;;5069570;28;20032;-62
2023/05/24 10:23:56;;;;;;;7.68;2.30;;;16.80;92.60;;;;;;5056578;28;20036;-64
2023/05/24 10:26:25;;;;;;;8.82;2.92;;;16.80;92.50;;;;;;5055844;28;20051;-62
2023/05/24 10:28:56;;;;;;;9.52;3.25;;;16.70;91.50;;;;;;5056391;28;20036;-62
2023/05/24 10:31:23;;;;;;;;;;;16.70;91.70;;;;;;5056796;28;20500;-64
2023/05/24 10:33:50;;;;;;;7.90;2.50;;;16.70;90.60;;;;;;5055837;28;20419;-62
2023/05/24 10:36:17;;;;;;;7.93;2.90;;;16.80;91.80;;;;;;5042269;28;20496;-62
2023/05/24 10:38:45;;;;;;;10.30;2.92;;;16.80;92.40;;;;;;5073854;28;20408;-63
2023/05/24 10:41:12;;;;;;;10.65;2.42;;;16.70;92.00;;;;;;5075649;28;20445;-63
2023/05/24 10:43:38;;;;;;;13.32;3.20;;;16.50;92.90;;;;;;5067637;28;20080;-63
2023/05/24 10:46:06;;;;;;;7.07;2.45;;;16.60;92.00;;;;;;5058620;28;20465;-62
2023/05/24 10:48:42;;;;;;;7.85;2.95;;;16.70;91.00;;;;;;5047341;28;20053;-62
2023/05/24 10:51:37;;;;;;;5.80;2.50;;;16.80;90.80;;;;;;5056453;28;20017;-65
2023/05/24 10:54:17;;;;;;;7.55;2.28;;;16.80;91.60;;;;;;5042989;28;20036;-63
2023/05/24 10:56:48;;;;;;;7.45;2.10;;;16.80;90.80;;;;;;5055934;28;20028;-63
2023/05/24 10:59:36;;;;;;;8.55;2.65;;;16.80;90.90;;;;;;5037910;28;20060;-62
2023/05/24 11:02:03;;;;;;;7.28;2.30;;;16.80;89.50;;;;;;5060487;28;20032;-64
2023/05/24 11:04:35;;;;;;;5.88;2.30;;;16.90;88.90;;;;;;5056306;28;20032;-64
2023/05/24 11:07:04;;;;;;;7.35;2.30;;;17.10;87.20;;;;;;5057937;28;20074;-63
2023/05/24 11:09:30;;;;;;;7.93;2.33;;;17.20;86.10;;;;;;5070270;28;20021;-63
2023/05/24 11:12:07;;;;;;;5.55;2.28;;;17.10;83.40;;;;;;5055887;28;20045;-63
2023/05/24 11:14:37;;;;;;;8.00;2.90;;;16.80;84.40;;;;;;5059110;28;20428;-62
2023/05/24 11:17:04;;;;;;;8.77;2.53;;;16.80;89.40;;;;;;5075703;28;20021;-62
2023/05/24 11:19:36;;;;;;;8.05;2.63;;;17.10;90.00;;;;;;5071985;28;20520;-62
2023/05/24 11:22:13;;;;;;;6.13;2.28;;;17.30;89.80;;;;;;5055572;28;20087;-66
2023/05/24 11:24:40;;;;;;;8.35;2.40;;;17.60;86.00;;;;;;5054787;28;20047;-63
2023/05/24 11:27:06;;;;;;;7.20;2.72;;;17.60;85.00;;;;;;5055243;28;20394;-64
2023/05/24 11:29:38;;;;;;;7.57;2.05;;;17.60;83.20;;;;;;5057803;28;20096;-62
2023/05/24 11:32:04;;;;;;;8.77;2.28;;;17.60;85.40;;;;;;5075379;28;20025;-63
2023/05/24 11:34:31;;;;;;;8.80;3.17;;;17.70;80.70;;;;;;5072205;28;20059;-65
2023/05/24 11:37:01;;;;;;;4.43;2.03;;;17.60;79.80;;;;;;5054821;28;20033;-64
2023/05/24 11:39:35;;;;;;;9.60;2.28;;;17.60;80.40;;;;;;5056995;28;20027;-65
2023/05/24 11:42:03;;;;;;;8.40;2.45;;;17.70;81.10;;;;;;5074942;28;20432;-67
2023/05/24 11:44:30;;;;;;;6.07;2.55;;;17.90;80.90;;;;;;5074336;28;20024;-63
2023/05/24 11:47:00;;;;;;;5.20;1.90;;;18.00;79.20;;;;;;5072071;28;20480;-62
2023/05/24 11:49:26;;;;;;;8.95;2.22;;;18.00;78.80;;;;;;5056838;28;20040;-62
2023/05/24 11:51:55;;;;;;;5.72;2.25;;;18.00;76.80;;;;;;5074377;28;20092;-62
2023/05/24 11:54:21;;;;;;;9.98;2.90;;;18.10;78.00;;;;;;5074884;28;20028;-62
2023/05/24 11:56:47;;;;;;;7.43;2.63;;;18.20;77.50;;;;;;5074035;28;20020;-63
2023/05/24 11:59:26;;;;;;;6.25;2.35;;;18.20;77.20;;;;;;5067929;28;20382;-63
2023/05/24 12:02:03;;;;;;;7.80;2.67;;;18.20;78.30;;;;;;5063956;28;20052;-65
2023/05/24 12:04:29;;;;;;;6.88;2.50;;;18.20;78.10;;;;;;5068496;28;20496;-62
2023/05/24 12:06:56;;;;;;;9.75;2.60;;;18.10;78.60;;;;;;5060629;28;20107;-61
2023/05/24 12:09:22;;;;;;;6.93;2.47;;;18.10;77.60;;;;;;5061547;28;20115;-64
2023/05/24 12:11:49;;;;;;;9.88;3.28;;;18.20;78.70;;;;;;5067061;28;20142;-62
2023/05/24 12:14:34;;;;;;;8.65;2.50;;;18.40;77.60;;;;;;5069465;28;20385;-61
2023/05/24 12:17:00;;;;;;;7.70;2.55;;;18.50;78.60;;;;;;5069109;28;20029;-63
2023/05/24 12:19:35;;;;;;;7.30;2.78;;;18.60;78.40;;;;;;5061134;28;20035;-63
2023/05/24 12:22:05;;;;;;;9.40;2.42;;;18.70;76.90;;;;;;5067991;28;20039;-65
2023/05/24 12:24:31;;;;;;;6.10;2.30;;;18.60;77.50;;;;;;5071057;28;20477;-64
2023/05/24 12:27:01;;;;;;;4.40;2.22;;;18.60;77.80;;;;;;5065029;28;20044;-63
2023/05/24 12:29:32;;;;;;;10.75;3.13;;;18.40;76.60;;;;;;5067364;28;20037;-64
2023/05/24 12:31:58;;;;;;;8.10;2.97;;;18.20;75.20;;;;;;5059127;28;20484;-63
2023/05/24 12:34:24;;;;;;;5.72;2.50;;;18.00;73.90;;;;;;5071039;28;20082;-64
2023/05/24 12:36:50;;;;;;;8.50;2.20;;;18.00;75.80;;;;;;5062300;28;20024;-63
2023/05/24 12:39:35;;;;;;;8.43;2.70;;;18.10;76.20;;;;;;5072786;28;20018;-63
2023/05/24 12:42:02;;;;;;;7.30;2.53;;;18.30;76.40;;;;;;5072020;28;20045;-61
2023/05/24 12:44:33;;;;;;;5.18;2.55;;;18.50;75.60;;;;;;5073243;28;20016;-61
2023/05/24 12:47:02;;;;;;;5.10;2.30;;;18.40;73.60;;;;;;5072888;28;20542;-64
2023/05/24 12:49:28;;;;;;;6.72;2.55;;;18.10;73.60;;;;;;5073279;28;20023;-63
2023/05/24 12:51:55;;;;;;;5.90;2.58;;;17.80;72.10;;;;;;5068483;28;21353;-62